Time;durP1;ratioP1;P1;durP2;ratioP2;P2;SDS_P1;SDS_P2;PMS_P1;PMS_P2;Temp;Humidity;BMP_temperature;BMP_pressure;BME280_temperature;BME280_humidity;BME280_pressure;Samples;Min_cycle;Max_cycle;Signal;HPM_P1;HPM_P2
2022/07/12 00:01:39;;;;;;;676.83;631.73;;;15.10;25.30;;;;;;5011949;28;20258;-69
2022/07/12 00:04:04;;;;;;;595.37;559.03;;;15.10;25.10;;;;;;5012007;28;20171;-70
2022/07/12 00:06:30;;;;;;;727.73;681.93;;;15.20;24.70;;;;;;5012127;28;20254;-70
2022/07/12 00:08:55;;;;;;;653.40;613.57;;;15.20;24.20;;;;;;5010312;28;20641;-70
2022/07/12 00:11:21;;;;;;;1069.07;988.10;;;15.20;24.70;;;;;;5012072;28;20194;-70
2022/07/12 00:13:46;;;;;;;565.77;532.27;;;15.10;25.20;;;;;;5011977;28;20186;-69
2022/07/12 00:16:12;;;;;;;623.97;584.57;;;15.20;24.80;;;;;;5011847;28;20202;-69
2022/07/12 00:18:37;;;;;;;696.60;653.07;;;15.20;24.90;;;;;;5011415;28;20267;-68
2022/07/12 00:21:03;;;;;;;732.57;679.37;;;15.10;24.90;;;;;;5011965;28;20221;-68
2022/07/12 00:23:29;;;;;;;680.63;636.27;;;15.00;25.40;;;;;;5011839;28;20246;-69
2022/07/12 00:25:54;;;;;;;879.57;815.20;;;15.00;25.30;;;;;;5011686;28;20198;-69
2022/07/12 00:28:20;;;;;;;680.73;634.20;;;15.00;25.60;;;;;;5011522;28;20649;-69
2022/07/12 00:30:45;;;;;;;747.40;694.57;;;15.00;25.40;;;;;;5010272;28;20792;-69
2022/07/12 00:33:11;;;;;;;762.63;708.20;;;14.90;25.70;;;;;;5014625;28;20541;-69
2022/07/12 00:35:36;;;;;;;514.60;483.53;;;14.90;25.90;;;;;;5015241;28;20177;-69
2022/07/12 00:38:02;;;;;;;591.97;553.10;;;14.80;25.90;;;;;;5015173;28;20219;-69
2022/07/12 00:40:27;;;;;;;918.97;851.73;;;14.70;26.40;;;;;;5015372;28;20262;-73
2022/07/12 00:42:53;;;;;;;623.33;579.87;;;14.70;26.90;;;;;;5015371;28;20537;-71
2022/07/12 00:45:19;;;;;;;961.80;884.93;;;14.70;25.80;;;;;;5015036;28;20181;-73
2022/07/12 00:47:49;;;;;;;725.33;675.77;;;14.70;26.10;;;;;;5015079;28;20209;-72
2022/07/12 00:50:20;;;;;;;549.80;514.20;;;14.70;25.80;;;;;;5014780;28;20172;-72
2022/07/12 00:52:48;;;;;;;294.97;282.20;;;14.70;26.00;;;;;;5013767;28;20445;-72
2022/07/12 00:55:14;;;;;;;457.93;430.60;;;14.50;26.50;;;;;;5015076;28;20549;-72
2022/07/12 00:57:42;;;;;;;842.57;789.70;;;14.30;27.30;;;;;;5014787;28;20969;-71
2022/07/12 01:00:10;;;;;;;592.17;553.60;;;14.40;27.20;;;;;;5014919;28;20411;-71
2022/07/12 01:02:36;;;;;;;969.87;900.67;;;14.40;27.10;;;;;;5014836;28;20966;-71
2022/07/12 01:05:04;;;;;;;653.87;613.57;;;14.40;27.30;;;;;;5014828;28;20404;-71
2022/07/12 01:07:30;;;;;;;804.27;745.90;;;14.40;26.70;;;;;;5015582;28;20432;-72
2022/07/12 01:09:56;;;;;;;397.13;375.17;;;14.50;26.70;;;;;;5014357;28;20417;-71
2022/07/12 01:12:23;;;;;;;514.10;483.80;;;14.50;26.90;;;;;;5014689;28;20168;-71
2022/07/12 01:14:50;;;;;;;382.43;364.23;;;14.40;26.80;;;;;;5014552;28;20411;-71
2022/07/12 01:17:23;;;;;;;589.67;551.13;;;14.40;27.10;;;;;;5013287;28;20445;-71
2022/07/12 01:19:50;;;;;;;530.50;498.73;;;14.40;26.80;;;;;;5014152;28;20801;-71
2022/07/12 01:22:17;;;;;;;827.13;772.73;;;14.40;26.30;;;;;;5014623;28;20490;-71
2022/07/12 01:24:46;;;;;;;952.30;880.53;;;14.30;27.00;;;;;;5013172;28;20428;-72
2022/07/12 01:27:12;;;;;;;885.90;819.30;;;14.40;26.80;;;;;;5014336;28;20437;-71
2022/07/12 01:29:39;;;;;;;664.87;619.67;;;14.40;26.70;;;;;;5013935;28;20439;-73
2022/07/12 01:32:26;;;;;;;696.93;649.70;;;14.30;26.90;;;;;;5014166;28;20450;-73
2022/07/12 01:35:03;;;;;;;594.40;554.07;;;14.40;26.40;;;;;;5014274;28;20476;-73
2022/07/12 01:37:33;;;;;;;613.80;574.97;;;14.50;26.00;;;;;;5013962;28;20462;-73
2022/07/12 01:39:59;;;;;;;920.33;851.87;;;14.40;26.20;;;;;;5013727;28;20500;-73
2022/07/12 01:42:27;;;;;;;1063.50;976.47;;;14.50;26.20;;;;;;5014237;28;20438;-73
2022/07/12 01:44:53;;;;;;;1015.90;939.37;;;14.30;26.60;;;;;;5013583;28;20822;-72
2022/07/12 01:47:20;;;;;;;500.57;472.57;;;14.40;26.50;;;;;;5013981;28;20803;-72
2022/07/12 01:49:45;;;;;;;1006.07;928.63;;;14.40;26.10;;;;;;5013810;28;20446;-72
2022/07/12 01:52:12;;;;;;;1018.70;944.67;;;14.40;26.40;;;;;;5013862;28;20451;-72
2022/07/12 01:54:38;;;;;;;615.97;579.13;;;14.40;26.30;;;;;;5014078;28;20544;-72
2022/07/12 01:57:04;;;;;;;959.80;890.33;;;14.40;26.10;;;;;;5012874;28;20527;-72
2022/07/12 01:59:30;;;;;;;964.57;889.67;;;14.30;26.50;;;;;;5013332;28;20235;-72
2022/07/12 02:01:56;;;;;;;930.30;863.87;;;14.20;26.80;;;;;;5013792;28;20481;-72
2022/07/12 02:04:22;;;;;;;763.63;712.20;;;14.10;27.30;;;;;;5013812;28;20735;-72
2022/07/12 02:06:48;;;;;;;823.37;765.13;;;14.10;27.20;;;;;;5013773;28;20487;-72
2022/07/12 02:09:13;;;;;;;965.23;893.93;;;14.10;27.30;;;;;;5013231;28;20176;-72
2022/07/12 02:11:40;;;;;;;1072.83;991.03;;;14.20;27.40;;;;;;5013581;28;20435;-72
2022/07/12 02:14:06;;;;;;;942.53;871.50;;;14.20;27.40;;;;;;5013653;28;20266;-72
2022/07/12 02:16:32;;;;;;;751.50;695.83;;;14.20;27.30;;;;;;5013386;28;20888;-72
2022/07/12 02:18:58;;;;;;;559.10;520.50;;;14.10;27.50;;;;;;5012975;28;20465;-72
2022/07/12 02:21:23;;;;;;;939.10;868.70;;;14.10;27.40;;;;;;5013332;28;20193;-72
2022/07/12 02:23:49;;;;;;;527.73;495.47;;;14.10;27.50;;;;;;5013345;28;20498;-72
2022/07/12 02:26:15;;;;;;;1014.00;938.33;;;14.00;27.40;;;;;;5013204;28;20263;-73
2022/07/12 02:28:41;;;;;;;466.30;438.93;;;14.10;27.60;;;;;;5012968;28;20180;-72
2022/07/12 02:31:07;;;;;;;713.40;666.03;;;14.00;27.30;;;;;;5013108;28;20200;-73
2022/07/12 02:33:32;;;;;;;787.20;731.13;;;14.00;27.70;;;;;;5013158;28;20430;-73
2022/07/12 02:35:58;;;;;;;592.70;555.23;;;13.90;28.00;;;;;;5012942;28;20222;-73
2022/07/12 02:38:23;;;;;;;643.57;602.50;;;13.90;27.90;;;;;;5012704;28;20298;-72
2022/07/12 02:40:55;;;;;;;563.90;528.80;;;13.90;28.20;;;;;;5013304;28;20234;-72
2022/07/12 02:43:25;;;;;;;716.40;668.83;;;13.90;27.70;;;;;;5012126;28;20271;-72
2022/07/12 02:46:02;;;;;;;714.83;666.23;;;13.90;27.80;;;;;;5013232;28;20510;-72
2022/07/12 02:48:28;;;;;;;553.63;518.33;;;13.90;28.10;;;;;;5011831;28;20980;-72
2022/07/12 02:50:53;;;;;;;1045.73;967.30;;;13.90;28.10;;;;;;5013642;28;20420;-72
2022/07/12 02:53:19;;;;;;;924.10;858.93;;;13.80;28.40;;;;;;5013513;28;20186;-72
2022/07/12 02:55:44;;;;;;;711.37;661.20;;;13.90;28.20;;;;;;5012301;28;20218;-72
2022/07/12 02:58:11;;;;;;;680.80;634.67;;;13.80;27.70;;;;;;5012325;28;20566;-72
2022/07/12 03:00:37;;;;;;;756.77;706.00;;;13.80;28.10;;;;;;5011484;28;20267;-73
2022/07/12 03:03:03;;;;;;;510.23;482.37;;;13.70;28.60;;;;;;5012700;28;20514;-73
2022/07/12 03:05:28;;;;;;;544.10;509.93;;;13.70;28.40;;;;;;5012680;28;20498;-72
2022/07/12 03:07:54;;;;;;;698.53;655.63;;;13.70;28.40;;;;;;5011314;28;20629;-72
2022/07/12 03:10:19;;;;;;;784.90;728.43;;;13.70;28.40;;;;;;5012494;28;20188;-72
2022/07/12 03:12:45;;;;;;;738.80;690.20;;;13.60;29.00;;;;;;5012646;28;20176;-72
2022/07/12 03:15:11;;;;;;;576.50;541.10;;;13.60;28.90;;;;;;5012621;28;20177;-72
2022/07/12 03:17:37;;;;;;;879.33;816.87;;;13.70;28.60;;;;;;5012439;28;20261;-72
2022/07/12 03:20:08;;;;;;;641.53;599.40;;;13.60;28.70;;;;;;5012013;28;20484;-71
2022/07/12 03:22:34;;;;;;;444.27;418.27;;;13.60;28.70;;;;;;5012601;28;20183;-71
2022/07/12 03:25:00;;;;;;;518.87;488.17;;;13.60;28.50;;;;;;5012392;28;20810;-71
2022/07/12 03:27:25;;;;;;;771.13;721.67;;;13.70;28.90;;;;;;5011092;28;20688;-72
2022/07/12 03:29:51;;;;;;;604.23;567.37;;;13.70;29.10;;;;;;5011808;28;20324;-72
2022/07/12 03:32:16;;;;;;;974.10;907.13;;;13.70;28.50;;;;;;4997273;28;20672;-71
2022/07/12 03:34:42;;;;;;;544.47;511.83;;;13.70;28.90;;;;;;5008124;28;20189;-72
2022/07/12 03:37:07;;;;;;;480.20;453.67;;;13.70;28.90;;;;;;5019972;23;20232;-68
2022/07/12 03:39:33;;;;;;;507.77;478.57;;;13.70;28.60;;;;;;5030601;28;20238;-68
2022/07/12 03:41:58;;;;;;;417.57;393.07;;;13.70;28.70;;;;;;5029110;28;20176;-67
2022/07/12 03:44:24;;;;;;;865.43;805.00;;;13.80;28.60;;;;;;5018723;28;20243;-67
2022/07/12 03:46:50;;;;;;;926.47;863.50;;;13.90;28.20;;;;;;5012220;28;20234;-67
2022/07/12 03:49:15;;;;;;;813.60;758.53;;;13.90;27.70;;;;;;5010497;28;20181;-67
2022/07/12 03:51:41;;;;;;;1024.60;950.13;;;14.10;27.40;;;;;;5012198;28;20746;-67
2022/07/12 03:54:10;;;;;;;621.10;583.83;;;14.20;27.30;;;;;;5012081;28;20295;-67
2022/07/12 03:59:20;;;;;;;489.10;464.90;;;14.40;26.30;;;;;;5011583;28;20490;-67
2022/07/12 04:01:46;;;;;;;734.87;689.07;;;14.40;25.80;;;;;;5011872;28;20418;-67
2022/07/12 04:04:11;;;;;;;803.13;753.47;;;14.50;26.00;;;;;;5011200;28;20415;-68
2022/07/12 04:06:38;;;;;;;757.97;710.63;;;14.60;25.80;;;;;;5011492;28;20174;-68
2022/07/12 04:09:04;;;;;;;721.53;671.27;;;14.70;25.80;;;;;;5015142;28;20756;-68
2022/07/12 04:11:30;;;;;;;656.50;618.27;;;14.80;25.40;;;;;;5015818;28;20433;-66
2022/07/12 04:13:55;;;;;;;915.87;849.50;;;15.00;24.60;;;;;;5014893;28;20961;-66
2022/07/12 04:16:21;;;;;;;743.97;695.33;;;15.10;24.20;;;;;;5015698;28;20172;-67
2022/07/12 04:18:47;;;;;;;765.57;716.20;;;15.20;23.70;;;;;;5015088;28;20473;-67
2022/07/12 04:21:12;;;;;;;591.93;559.93;;;15.30;23.40;;;;;;5015658;28;20181;-66
2022/07/12 04:23:38;;;;;;;619.33;584.17;;;15.30;23.50;;;;;;5015592;28;20641;-67
2022/07/12 04:26:04;;;;;;;697.27;653.70;;;15.30;23.60;;;;;;5015636;28;20175;-67
2022/07/12 04:28:29;;;;;;;632.97;596.73;;;15.40;23.20;;;;;;5014921;28;20194;-67
2022/07/12 04:30:55;;;;;;;663.83;622.70;;;15.40;23.10;;;;;;5015466;28;20183;-67
2022/07/12 04:33:21;;;;;;;744.07;697.07;;;15.40;23.10;;;;;;5015269;28;20198;-66
2022/07/12 04:35:46;;;;;;;1033.10;956.67;;;15.30;23.20;;;;;;5015386;28;20206;-67
2022/07/12 04:38:12;;;;;;;976.53;903.50;;;15.40;23.20;;;;;;5014585;28;20220;-66
2022/07/12 04:40:37;;;;;;;931.70;866.60;;;15.50;23.00;;;;;;5015269;28;20516;-68
2022/07/12 04:43:03;;;;;;;703.23;659.90;;;15.60;23.00;;;;;;5014833;28;20178;-66
2022/07/12 04:45:29;;;;;;;650.20;613.40;;;15.60;22.80;;;;;;5015069;28;20176;-66
2022/07/12 04:47:54;;;;;;;939.67;870.03;;;15.60;22.80;;;;;;5014872;28;20333;-66
2022/07/12 04:50:20;;;;;;;706.67;664.40;;;;;;;;;;5014712;28;20183;-66
2022/07/12 04:52:45;;;;;;;851.33;792.73;;;15.80;21.90;;;;;;5014892;28;20179;-67
2022/07/12 04:55:11;;;;;;;1016.10;943.00;;;15.90;22.40;;;;;;5014792;28;20418;-65
2022/07/12 04:57:37;;;;;;;984.37;913.27;;;15.90;21.90;;;;;;5014489;28;20191;-66
2022/07/12 05:00:06;;;;;;;764.03;716.97;;;16.00;21.70;;;;;;5014389;28;20212;-67
2022/07/12 05:02:33;;;;;;;708.87;663.93;;;16.20;22.10;;;;;;5014891;28;20637;-66
2022/07/12 05:04:59;;;;;;;790.40;741.87;;;;;;;;;;5014915;28;20446;-67
2022/07/12 05:07:24;;;;;;;773.23;728.23;;;18.40;18.90;;;;;;5014727;28;20807;-68
2022/07/12 05:09:51;;;;;;;717.67;675.27;;;19.80;16.40;;;;;;5014352;28;20429;-67
2022/07/12 05:12:17;;;;;;;713.03;673.30;;;21.10;13.60;;;;;;5014519;28;20641;-68
2022/07/12 05:14:42;;;;;;;846.77;788.93;;;22.20;11.50;;;;;;5014690;28;20415;-67
2022/07/12 05:17:08;;;;;;;784.23;723.63;;;23.40;8.80;;;;;;5012842;28;20489;-69
2022/07/12 05:19:34;;;;;;;749.20;692.73;;;24.50;8.20;;;;;;5013077;28;20673;-66
2022/07/12 05:21:59;;;;;;;747.30;696.20;;;25.60;6.70;;;;;;5013520;28;20196;-66
2022/07/12 05:24:25;;;;;;;845.00;776.67;;;26.60;4.10;;;;;;5013446;28;20190;-68
2022/07/12 05:26:50;;;;;;;1045.40;945.93;;;27.60;3.00;;;;;;5013185;28;20188;-66
2022/07/12 05:29:16;;;;;;;937.53;863.00;;;28.60;17.50;;;;;;5013733;28;20242;-66
2022/07/12 05:31:41;;;;;;;937.97;863.57;;;29.50;1.00;;;;;;5014335;28;20196;-66
2022/07/12 05:34:07;;;;;;;997.00;900.23;;;29.50;1.00;;;;;;5013611;28;20219;-66
2022/07/12 05:36:32;;;;;;;1027.97;919.13;;;29.60;1.00;;;;;;5012829;28;20191;-65
2022/07/12 05:38:58;;;;;;;1096.37;979.90;;;29.70;1.00;;;;;;5013476;28;20215;-65
2022/07/12 05:41:23;;;;;;;938.47;856.53;;;29.40;1.00;;;;;;5014018;28;20194;-67
2022/07/12 05:43:49;;;;;;;946.23;857.87;;;29.90;1.00;;;;;;5013999;28;20259;-66
2022/07/12 05:46:14;;;;;;;1053.87;939.57;;;30.60;1.00;;;;;;5013929;28;20184;-66
2022/07/12 05:48:40;;;;;;;974.67;885.43;;;31.30;1.00;;;;;;5013604;28;20200;-67
2022/07/12 05:53:50;;;;;;;934.20;851.70;;;31.50;1.00;;;;;;5014027;28;20234;-66
2022/07/12 05:56:16;;;;;;;948.97;866.60;;;32.40;1.00;;;;;;5013790;28;20415;-64
2022/07/12 05:58:42;;;;;;;911.47;832.57;;;32.80;1.00;;;;;;5013554;28;20750;-66
2022/07/12 06:01:07;;;;;;;1013.83;910.80;;;32.30;1.00;;;;;;5013660;28;20187;-66
2022/07/12 06:03:33;;;;;;;895.60;819.37;;;32.00;1.00;;;;;;5013567;28;20191;-67
2022/07/12 06:05:59;;;;;;;1026.33;926.30;;;31.10;1.00;;;;;;5013654;28;20180;-67
2022/07/12 06:08:25;;;;;;;895.20;825.50;;;;;;;;;;5013485;28;20741;-67
2022/07/12 06:10:51;;;;;;;897.73;821.30;;;32.70;1.00;;;;;;5013638;28;20414;-67
2022/07/12 06:13:16;;;;;;;997.03;904.63;;;32.60;1.00;;;;;;5013349;28;20904;-67
2022/07/12 06:15:42;;;;;;;889.57;814.20;;;29.40;1.00;;;;;;5013641;28;20179;-67
2022/07/12 06:18:08;;;;;;;916.23;834.80;;;30.30;1.00;;;;;;5012975;28;20291;-68
2022/07/12 06:20:33;;;;;;;837.63;770.67;;;31.60;1.00;;;;;;5011470;28;20266;-68
2022/07/12 06:22:59;;;;;;;935.70;851.20;;;32.00;1.00;;;;;;5022702;28;20278;-66
2022/07/12 06:25:25;;;;;;;1005.67;901.03;;;33.00;1.00;;;;;;5025029;28;20243;-68
2022/07/12 06:27:51;;;;;;;896.30;814.10;;;34.20;1.00;;;;;;5021613;28;20215;-68
2022/07/12 06:30:20;;;;;;;1041.67;936.47;;;;;;;;;;5032200;28;20637;-68
2022/07/12 06:32:47;;;;;;;934.83;846.83;;;35.70;1.00;;;;;;5029724;28;20184;-68
2022/07/12 06:35:13;;;;;;;953.80;865.90;;;35.40;1.00;;;;;;5024525;28;20427;-69
2022/07/12 06:37:39;;;;;;;1112.30;976.63;;;35.70;1.00;;;;;;5013201;28;20455;-68
2022/07/12 06:40:06;;;;;;;941.47;855.47;;;36.00;1.00;;;;;;5028223;28;20796;-68
2022/07/12 06:42:31;;;;;;;981.67;888.83;;;35.20;1.00;;;;;;5032173;28;20305;-67
2022/07/12 06:44:57;;;;;;;1029.87;920.47;;;32.20;1.00;;;;;;5030178;28;20442;-70
2022/07/12 06:47:22;;;;;;;932.20;851.43;;;33.00;1.00;;;;;;5013294;28;20196;-71
2022/07/12 06:49:48;;;;;;;1028.77;922.73;;;;;;;;;;5012918;28;20625;-68
2022/07/12 06:52:14;;;;;;;985.73;887.67;;;32.90;1.00;;;;;;5028205;28;20245;-69
2022/07/12 06:54:40;;;;;;;1007.07;914.37;;;32.20;1.00;;;;;;5032694;28;20781;-69
2022/07/12 06:57:06;;;;;;;951.27;869.90;;;30.50;1.00;;;;;;5028154;28;20226;-70
2022/07/12 06:59:32;;;;;;;960.10;871.03;;;29.50;1.00;;;;;;5028724;28;20231;-69
2022/07/12 07:01:57;;;;;;;856.80;793.57;;;28.30;1.00;;;;;;5026966;28;20524;-68
2022/07/12 07:04:24;;;;;;;921.97;848.23;;;27.00;1.00;;;;;;5028465;28;20190;-69
2022/07/12 07:06:49;;;;;;;873.80;806.43;;;25.80;2.10;;;;;;5027454;28;20175;-69
2022/07/12 07:09:15;;;;;;;860.53;792.53;;;;;;;;;;5027547;28;20532;-66
2022/07/12 07:11:41;;;;;;;949.93;866.70;;;26.50;1.20;;;;;;5027835;28;20187;-69
2022/07/12 07:14:07;;;;;;;869.40;797.57;;;27.10;1.00;;;;;;5026376;28;20433;-67
2022/07/12 07:16:32;;;;;;;918.57;838.13;;;27.10;1.00;;;;;;5028284;28;20607;-68
2022/07/12 07:18:59;;;;;;;780.50;727.63;;;26.50;2.30;;;;;;5028226;28;20214;-69
2022/07/12 07:21:25;;;;;;;890.57;813.27;;;25.30;3.30;;;;;;5024570;28;20187;-69
2022/07/12 07:23:51;;;;;;;948.93;858.40;;;;;;;;;;5012082;28;20432;-66
2022/07/12 07:26:17;;;;;;;990.87;897.57;;;26.30;1.90;;;;;;5028553;28;20460;-68
2022/07/12 07:31:27;;;;;;;856.33;789.80;;;28.00;1.90;;;;;;5028174;28;20245;-68
2022/07/12 07:33:53;;;;;;;927.03;850.37;;;27.10;1.50;;;;;;5027363;28;20457;-68
2022/07/12 07:36:19;;;;;;;918.90;840.00;;;;;;;;;;5028269;28;20183;-68
2022/07/12 07:38:44;;;;;;;1003.93;907.50;;;28.60;12.40;;;;;;5026728;28;20215;-70
2022/07/12 07:41:10;;;;;;;933.53;851.13;;;28.90;1.00;;;;;;5027235;28;20422;-70
2022/07/12 07:43:36;;;;;;;977.53;886.77;;;29.80;1.00;;;;;;5028311;28;20279;-71
2022/07/12 07:46:01;;;;;;;990.33;898.73;;;31.00;1.00;;;;;;5027411;28;20229;-69
2022/07/12 07:48:28;;;;;;;1065.13;950.90;;;31.00;1.00;;;;;;5026724;28;20199;-68
2022/07/12 07:50:54;;;;;;;1119.23;970.73;;;31.80;1.00;;;;;;5028312;28;20187;-69
2022/07/12 07:53:19;;;;;;;1116.57;968.63;;;32.30;1.00;;;;;;5026965;28;20425;-69
2022/07/12 07:55:45;;;;;;;1100.53;981.03;;;32.30;1.00;;;;;;5027235;28;20191;-69
2022/07/12 07:58:10;;;;;;;1077.83;968.17;;;30.90;1.00;;;;;;5027173;28;20228;-68
2022/07/12 08:00:36;;;;;;;1102.23;975.37;;;31.70;1.00;;;;;;5027333;28;20597;-69
2022/07/12 08:03:02;;;;;;;976.17;892.33;;;32.50;1.00;;;;;;5027164;28;20190;-68
2022/07/12 08:05:27;;;;;;;1100.73;978.97;;;32.80;1.00;;;;;;5026975;28;20274;-69
2022/07/12 08:07:53;;;;;;;937.23;853.63;;;33.20;1.00;;;;;;5027184;28;20199;-68
2022/07/12 08:10:18;;;;;;;1098.07;971.10;;;32.20;1.00;;;;;;5026162;28;20187;-70
2022/07/12 08:12:44;;;;;;;1100.23;978.60;;;32.30;1.00;;;;;;5026209;28;20194;-69
2022/07/12 08:15:10;;;;;;;928.07;849.97;;;32.00;1.00;;;;;;5027572;28;20188;-70
2022/07/12 08:17:37;;;;;;;1149.03;999.90;;;30.60;1.00;;;;;;5030424;28;20703;-70
2022/07/12 08:20:03;;;;;;;970.23;880.80;;;28.20;1.00;;;;;;5037914;28;20711;-68
2022/07/12 08:22:29;;;;;;;1088.20;973.33;;;27.80;1.00;;;;;;5027659;28;20448;-68
2022/07/12 08:24:54;;;;;;;949.50;863.07;;;28.10;1.00;;;;;;5027833;28;20418;-69
2022/07/12 08:27:20;;;;;;;859.63;792.93;;;28.70;1.00;;;;;;5028210;28;20199;-68
2022/07/12 08:29:46;;;;;;;992.47;889.73;;;29.20;1.00;;;;;;5030882;28;20195;-68
2022/07/12 08:32:11;;;;;;;858.57;788.20;;;27.90;1.00;;;;;;5028276;28;20187;-69
2022/07/12 08:34:37;;;;;;;1276.67;999.90;;;27.00;1.00;;;;;;5027734;28;20664;-69
2022/07/12 08:37:03;;;;;;;852.80;784.80;;;28.00;1.00;;;;;;5026476;28;20226;-69
2022/07/12 08:39:29;;;;;;;901.23;824.60;;;27.40;8.30;;;;;;5025398;28;20723;-69
2022/07/12 08:41:54;;;;;;;987.63;895.53;;;28.20;1.00;;;;;;5026319;28;20457;-68
2022/07/12 08:44:20;;;;;;;1021.37;919.17;;;27.90;1.00;;;;;;5025393;28;20637;-67
2022/07/12 08:46:46;;;;;;;920.40;843.63;;;28.00;1.00;;;;;;5025782;28;20695;-68
2022/07/12 08:49:12;;;;;;;880.60;806.10;;;28.40;1.00;;;;;;5025084;28;20183;-68
2022/07/12 08:51:38;;;;;;;817.87;757.87;;;28.70;1.00;;;;;;5025388;28;20997;-66
2022/07/12 08:54:06;;;;;;;909.90;828.83;;;28.40;1.00;;;;;;5027494;28;20194;-69
2022/07/12 08:56:34;;;;;;;899.43;820.97;;;27.50;1.00;;;;;;5030480;28;20190;-68
2022/07/12 08:59:19;;;;;;;880.17;810.30;;;26.90;1.00;;;;;;5028623;28;20966;-68
2022/07/12 09:01:49;;;;;;;875.93;804.20;;;26.60;1.00;;;;;;5030162;28;20834;-69
2022/07/12 09:04:27;;;;;;;834.73;772.07;;;26.30;15.20;;;;;;5030324;28;20417;-69
2022/07/12 09:06:54;;;;;;;917.10;841.33;;;;;;;;;;5030383;28;20944;-68
2022/07/12 09:09:28;;;;;;;820.57;763.73;;;24.80;1.70;;;;;;5030491;28;20456;-67
2022/07/12 09:11:54;;;;;;;741.07;683.77;;;24.40;3.30;;;;;;5031178;28;20487;-68
2022/07/12 09:14:20;;;;;;;1120.80;999.90;;;23.70;4.20;;;;;;5030910;28;20672;-68
2022/07/12 09:16:59;;;;;;;902.33;828.93;;;23.60;3.70;;;;;;5030882;28;20422;-67
2022/07/12 09:19:25;;;;;;;814.67;749.13;;;23.90;3.60;;;;;;5029653;28;20462;-68
2022/07/12 09:21:52;;;;;;;902.50;826.60;;;24.30;13.20;;;;;;5033353;28;20421;-68
2022/07/12 09:24:19;;;;;;;839.67;768.97;;;24.60;12.70;;;;;;5034377;28;20176;-67
2022/07/12 09:26:45;;;;;;;970.57;889.33;;;24.40;11.30;;;;;;5030766;28;20497;-67
2022/07/12 09:29:13;;;;;;;874.37;806.10;;;23.50;3.30;;;;;;5030871;28;20426;-67
2022/07/12 09:36:06;;;;;;;677.80;637.87;;;23.60;4.10;;;;;;5029753;28;20429;-68
2022/07/12 09:37:15;;;;;;;988.40;904.63;;;;;;;;;;5010647;28;20466;-68
2022/07/12 09:39:41;;;;;;;900.83;829.10;;;25.30;1.30;;;;;;5010134;28;20454;-66
2022/07/12 09:42:12;;;;;;;794.37;738.60;;;25.70;1.00;;;;;;5010654;28;20449;-68
2022/07/12 09:44:38;;;;;;;828.47;767.53;;;25.40;1.00;;;;;;5010060;28;20419;-68
2022/07/12 09:47:06;;;;;;;793.47;736.10;;;25.10;1.00;;;;;;5010162;28;20430;-68
2022/07/12 09:49:34;;;;;;;905.00;831.13;;;24.80;1.00;;;;;;5010358;28;20430;-68
2022/07/12 09:52:01;;;;;;;838.87;775.13;;;24.30;1.20;;;;;;5009855;28;20496;-68
2022/07/12 09:54:27;;;;;;;761.20;712.60;;;24.30;1.50;;;;;;5009699;28;20429;-69
2022/07/12 09:57:01;;;;;;;771.63;720.80;;;24.60;1.40;;;;;;5008885;28;20593;-69
2022/07/12 09:59:28;;;;;;;844.57;778.10;;;24.80;1.00;;;;;;5009812;28;20967;-70
2022/07/12 10:01:59;;;;;;;795.73;730.23;;;24.90;1.00;;;;;;5008233;28;20435;-68
2022/07/12 10:04:30;;;;;;;927.93;853.80;;;24.30;1.20;;;;;;5003136;28;20663;-68
2022/07/12 10:06:57;;;;;;;982.47;892.33;;;23.90;2.60;;;;;;5005755;28;20438;-68
2022/07/12 10:09:24;;;;;;;1006.87;915.10;;;23.80;1.70;;;;;;5011109;28;20415;-69
2022/07/12 10:11:50;;;;;;;876.80;803.67;;;23.70;2.20;;;;;;5013533;28;20797;-68
2022/07/12 10:14:18;;;;;;;772.40;718.27;;;23.40;2.50;;;;;;5013552;28;20430;-68
2022/07/12 10:16:45;;;;;;;849.33;782.20;;;23.20;2.40;;;;;;5013350;28;20477;-69
2022/07/12 10:19:31;;;;;;;814.43;753.87;;;23.50;2.80;;;;;;5011863;28;21039;-68
2022/07/12 10:21:59;;;;;;;803.77;743.87;;;23.60;2.30;;;;;;5027789;28;20426;-68
2022/07/12 10:24:33;;;;;;;901.53;828.27;;;23.60;2.30;;;;;;5029081;28;20520;-67
2022/07/12 10:27:14;;;;;;;765.57;712.53;;;23.50;2.70;;;;;;5032352;28;20565;-68
2022/07/12 10:29:47;;;;;;;781.10;719.07;;;23.70;1.30;;;;;;5033177;28;20504;-67
2022/07/12 10:32:32;;;;;;;731.47;685.50;;;23.70;1.00;;;;;;5033669;28;20891;-68
2022/07/12 10:35:02;;;;;;;688.40;646.80;;;24.00;1.70;;;;;;5033237;28;20429;-67
2022/07/12 10:37:29;;;;;;;856.73;790.40;;;24.20;1.10;;;;;;5031094;28;20791;-67
2022/07/12 10:40:17;;;;;;;915.00;837.93;;;24.30;1.90;;;;;;5033905;28;20480;-69
2022/07/12 10:43:04;;;;;;;707.17;660.83;;;24.10;1.70;;;;;;5032964;28;20433;-68
2022/07/12 10:45:31;;;;;;;861.93;792.50;;;24.10;2.00;;;;;;5032709;28;20480;-69
2022/07/12 10:47:58;;;;;;;756.87;702.60;;;24.30;2.00;;;;;;5032278;28;20487;-67
2022/07/12 10:50:43;;;;;;;953.00;867.20;;;24.40;1.70;;;;;;5032551;28;20425;-68
2022/07/12 10:53:21;;;;;;;949.93;865.87;;;24.50;1.40;;;;;;5032456;28;20417;-68
2022/07/12 10:56:17;;;;;;;782.37;727.90;;;24.40;1.90;;;;;;5032290;28;20462;-68
2022/07/12 10:58:53;;;;;;;738.53;692.83;;;24.20;2.20;;;;;;5017967;28;20470;-67
2022/07/12 11:01:22;;;;;;;737.40;690.93;;;24.40;2.20;;;;;;5012755;28;20422;-65
2022/07/12 11:04:05;;;;;;;862.10;796.83;;;24.70;1.50;;;;;;5015905;28;20433;-66
2022/07/12 11:06:38;;;;;;;781.30;725.97;;;24.60;1.40;;;;;;5032254;28;20445;-66
2022/07/12 11:09:03;;;;;;;855.83;791.53;;;24.20;1.50;;;;;;5031553;28;20429;-69
2022/07/12 11:11:31;;;;;;;954.80;875.43;;;24.00;2.30;;;;;;5032272;28;20798;-67
2022/07/12 11:14:00;;;;;;;818.00;755.47;;;24.10;2.40;;;;;;5031964;28;20266;-68
2022/07/12 11:16:27;;;;;;;744.23;695.03;;;24.10;2.30;;;;;;5025121;28;20938;-68
2022/07/12 11:18:53;;;;;;;790.83;733.97;;;24.30;1.50;;;;;;5031368;28;20978;-67
2022/07/12 11:21:22;;;;;;;778.90;723.77;;;24.30;1.70;;;;;;5030208;28;20440;-68
2022/07/12 11:23:48;;;;;;;848.37;784.17;;;24.20;1.50;;;;;;5030961;28;20429;-67
2022/07/12 11:26:14;;;;;;;767.67;713.67;;;24.20;1.20;;;;;;5032099;28;20430;-67
2022/07/12 11:28:41;;;;;;;769.00;712.47;;;24.20;1.20;;;;;;5031800;28;20448;-68
2022/07/12 11:31:12;;;;;;;935.83;856.27;;;24.00;2.60;;;;;;5031836;28;21097;-68
2022/07/12 11:33:44;;;;;;;942.37;860.87;;;24.20;1.10;;;;;;5012195;28;20411;-67
2022/07/12 11:36:11;;;;;;;852.33;786.93;;;23.90;1.90;;;;;;5012500;28;20773;-68
2022/07/12 11:38:39;;;;;;;754.13;700.97;;;23.70;2.10;;;;;;5011952;28;20545;-67
2022/07/12 11:41:06;;;;;;;867.03;800.83;;;23.70;1.90;;;;;;5012333;28;20752;-68
2022/07/12 11:43:33;;;;;;;797.23;740.70;;;23.70;2.10;;;;;;5031371;28;20422;-68
2022/07/12 11:45:59;;;;;;;672.60;630.63;;;23.60;2.50;;;;;;5031858;28;20452;-68
2022/07/12 11:48:25;;;;;;;994.57;906.47;;;23.80;2.20;;;;;;5031586;28;20437;-66
2022/07/12 11:50:52;;;;;;;693.07;653.80;;;23.90;2.20;;;;;;5031724;28;20457;-67
2022/07/12 11:53:21;;;;;;;790.73;732.00;;;24.00;2.60;;;;;;5020412;28;20453;-68
2022/07/12 11:55:51;;;;;;;401.67;377.67;;;24.10;2.10;;;;;;5011827;28;20407;-66
2022/07/12 11:58:18;;;;;;;783.53;721.47;;;24.10;2.10;;;;;;5029468;28;20485;-67
2022/07/12 12:00:45;;;;;;;968.67;884.33;;;24.00;1.10;;;;;;5031161;28;20429;-67
2022/07/12 12:03:12;;;;;;;1011.13;920.53;;;24.00;1.60;;;;;;5030225;28;20670;-68
2022/07/12 12:05:38;;;;;;;701.37;658.17;;;24.10;1.70;;;;;;5031662;28;20402;-66
2022/07/12 12:08:07;;;;;;;855.27;776.83;;;24.20;1.60;;;;;;5031130;28;20457;-68
2022/07/12 12:10:33;;;;;;;802.97;748.13;;;24.20;1.10;;;;;;5031615;28;20665;-66
2022/07/12 12:13:00;;;;;;;911.20;836.60;;;24.20;1.20;;;;;;5031199;28;20818;-67
2022/07/12 12:15:27;;;;;;;828.53;757.13;;;24.30;1.20;;;;;;5031670;28;20171;-68
2022/07/12 12:18:02;;;;;;;880.67;809.87;;;24.30;1.20;;;;;;5031387;28;20907;-68
2022/07/12 12:20:29;;;;;;;895.37;820.43;;;24.00;1.00;;;;;;5031437;28;20413;-67
2022/07/12 12:22:56;;;;;;;681.93;638.00;;;24.20;1.10;;;;;;5030767;28;20426;-69
2022/07/12 12:25:23;;;;;;;895.43;816.90;;;24.20;1.10;;;;;;5031629;28;20398;-69
2022/07/12 12:27:50;;;;;;;974.53;888.17;;;24.30;1.20;;;;;;5032150;28;20448;-69